Time;durP1;ratioP1;P1;durP2;ratioP2;P2;SDS_P1;SDS_P2;PMS_P1;PMS_P2;Temp;Humidity;BMP_temperature;BMP_pressure;BME280_temperature;BME280_humidity;BME280_pressure;Samples;Min_cycle;Max_cycle;Signal;HPM_P1;HPM_P2
2022/06/29 00:00:16;;;;;;;11.10;8.20;;;;;;;;;;5012033;28;20028;-78
2022/06/29 00:02:43;;;;;;;9.48;8.27;;;;;;;;;;5012008;28;20031;-78
2022/06/29 00:05:11;;;;;;;9.68;8.35;;;;;;;;;;4995352;28;20396;-78
2022/06/29 00:07:37;;;;;;;9.00;8.10;;;;;;;;;;5002750;28;20025;-78
2022/06/29 00:10:03;;;;;;;9.50;8.55;;;;;;;;;;5011706;28;20496;-78
2022/06/29 00:12:29;;;;;;;8.90;7.95;;;;;;;;;;5011795;28;20026;-78
2022/06/29 00:14:55;;;;;;;11.75;8.60;;;;;;;;;;5009155;28;20084;-78
2022/06/29 00:17:22;;;;;;;12.18;9.20;;;;;;;;;;5005659;28;20036;-78
2022/06/29 00:19:48;;;;;;;11.80;9.10;;;;;;;;;;5011766;28;20057;-78
2022/06/29 00:22:15;;;;;;;11.02;8.50;;;;;;;;;;4991664;28;20034;-78
2022/06/29 00:24:41;;;;;;;12.32;8.45;;;;;;;;;;4995194;28;20054;-79
2022/06/29 00:27:08;;;;;;;11.75;9.23;;;;;;;;;;5002708;28;20034;-78
2022/06/29 00:29:34;;;;;;;10.73;8.70;;;;;;;;;;4991377;28;20519;-78
2022/06/29 00:32:00;;;;;;;16.65;9.68;;;;;;;;;;4991155;28;20069;-78
2022/06/29 00:34:27;;;;;;;14.23;9.68;;;;;;;;;;4990097;28;20050;-78
2022/06/29 00:36:53;;;;;;;17.35;9.32;;;;;;;;;;4991750;28;20226;-78
2022/06/29 00:39:19;;;;;;;16.38;8.68;;;;;;;;;;4988182;28;20057;-78
2022/06/29 00:41:46;;;;;;;14.15;8.85;;;;;;;;;;4990245;28;20039;-78
2022/06/29 00:44:15;;;;;;;14.30;9.23;;;;;;;;;;4991417;28;20026;-78
2022/06/29 00:47:01;;;;;;;11.85;8.75;;;;;;;;;;5011445;28;20745;-79
2022/06/29 00:49:28;;;;;;;10.88;8.98;;;;;;;;;;5013556;28;20034;-78
2022/06/29 00:51:57;;;;;;;10.13;9.02;;;;;;;;;;4996577;28;20023;-79
2022/06/29 00:54:24;;;;;;;10.48;8.98;;;;;;;;;;4995682;28;20028;-78
2022/06/29 00:56:51;;;;;;;10.18;8.75;;;;;;;;;;5015209;28;20029;-78
2022/06/29 00:59:24;;;;;;;10.77;9.07;;;;;;;;;;5015336;28;20105;-78
2022/06/29 01:01:50;;;;;;;10.07;8.80;;;;;;;;;;5012665;28;20034;-78
2022/06/29 01:04:16;;;;;;;11.38;8.93;;;;;;;;;;5010786;28;20026;-78
2022/06/29 01:06:43;;;;;;;11.02;9.35;;;;;;;;;;5015099;28;20503;-78
2022/06/29 01:09:09;;;;;;;11.52;9.20;;;;;;;;;;5015171;28;20054;-77
2022/06/29 01:11:35;;;;;;;9.80;8.80;;;;;;;;;;5013587;28;20077;-77
2022/06/29 01:14:01;;;;;;;10.68;9.35;;;;;;;;;;5013547;28;20026;-78
2022/06/29 01:16:27;;;;;;;12.35;9.10;;;;;;;;;;5010772;28;20068;-78
2022/06/29 01:18:53;;;;;;;11.43;9.60;;;;;;;;;;5005252;28;20092;-79
2022/06/29 01:21:20;;;;;;;11.75;8.82;;;;;;;;;;4994256;28;20045;-78
2022/06/29 01:23:47;;;;;;;13.15;9.38;;;;;;;;;;4995141;28;20022;-78
2022/06/29 01:26:13;;;;;;;13.18;9.57;;;;;;;;;;5006326;28;20030;-78
2022/06/29 01:28:44;;;;;;;10.70;9.52;;;;;;;;;;5014819;28;20030;-77
2022/06/29 01:31:14;;;;;;;10.10;8.65;;;;;;;;;;5012857;28;20079;-78
2022/06/29 01:33:40;;;;;;;10.68;9.45;;;;;;;;;;4994579;28;20053;-78
2022/06/29 01:36:06;;;;;;;10.60;8.82;;;;;;;;;;4993411;28;20073;-79
2022/06/29 01:38:35;;;;;;;10.10;8.23;;;;;;;;;;4995040;28;20072;-78
2022/06/29 01:41:01;;;;;;;11.10;9.20;;;;;;;;;;4994439;28;20026;-78
2022/06/29 01:43:27;;;;;;;11.27;8.48;;;;;;;;;;4984906;28;20274;-79
2022/06/29 01:45:53;;;;;;;13.18;9.50;;;;;;;;;;4979868;28;20030;-78
2022/06/29 01:48:19;;;;;;;10.93;8.80;;;;;;;;;;4999197;28;20062;-79
2022/06/29 01:50:46;;;;;;;10.10;8.93;;;;;;;;;;4993070;28;20027;-78
2022/06/29 01:53:12;;;;;;;12.18;10.02;;;;;;;;;;5005035;28;20049;-78
2022/06/29 01:55:38;;;;;;;12.93;10.18;;;;;;;;;;4995326;28;20027;-78
2022/06/29 01:58:04;;;;;;;11.10;9.70;;;;;;;;;;5008107;28;20133;-78
2022/06/29 02:00:30;;;;;;;13.43;10.45;;;;;;;;;;5012984;28;20022;-78
2022/06/29 02:02:56;;;;;;;10.80;9.48;;;;;;;;;;5001286;28;20026;-78
2022/06/29 02:05:22;;;;;;;11.82;9.25;;;;;;;;;;5001907;28;20101;-79
2022/06/29 02:07:48;;;;;;;11.27;9.10;;;;;;;;;;4993401;28;20102;-78
2022/06/29 02:10:14;;;;;;;12.07;9.40;;;;;;;;;;4994227;28;20030;-78
2022/06/29 02:12:40;;;;;;;10.63;9.07;;;;;;;;;;4992776;28;20030;-78
2022/06/29 02:15:07;;;;;;;11.30;9.40;;;;;;;;;;4994248;28;20582;-78
2022/06/29 02:17:33;;;;;;;10.68;9.40;;;;;;;;;;4996383;28;20084;-78
2022/06/29 02:19:59;;;;;;;12.25;9.90;;;;;;;;;;4990230;28;20504;-78
2022/06/29 02:22:25;;;;;;;12.43;9.98;;;;;;;;;;4980351;28;20700;-78
2022/06/29 02:24:51;;;;;;;11.73;10.10;;;;;;;;;;4992178;28;20022;-78
2022/06/29 02:27:17;;;;;;;14.00;10.52;;;;;;;;;;5003170;28;20500;-79
2022/06/29 02:29:43;;;;;;;11.65;9.63;;;;;;;;;;5012631;28;20025;-79
2022/06/29 02:34:54;;;;;;;12.55;9.82;;;;;;;;;;5008041;28;20618;-78
2022/06/29 02:37:20;;;;;;;11.77;9.63;;;;;;;;;;4990281;28;20124;-78
2022/06/29 02:39:46;;;;;;;11.43;9.95;;;;;;;;;;4979989;28;20054;-78
2022/06/29 02:42:13;;;;;;;10.88;9.73;;;;;;;;;;4996782;28;20062;-78
2022/06/29 02:44:39;;;;;;;12.10;9.57;;;;;;;;;;5013103;28;20022;-78
2022/06/29 02:47:06;;;;;;;12.05;10.13;;;;;;;;;;5010175;28;20428;-78
2022/06/29 02:49:33;;;;;;;10.43;9.32;;;;;;;;;;5003936;28;20025;-78
2022/06/29 02:51:59;;;;;;;12.95;9.68;;;;;;;;;;5007804;28;20054;-78
2022/06/29 02:54:25;;;;;;;16.30;11.18;;;;;;;;;;4992746;28;20500;-79
2022/06/29 02:56:52;;;;;;;16.65;10.13;;;;;;;;;;4983733;28;20030;-79
2022/06/29 02:59:19;;;;;;;17.23;10.23;;;;;;;;;;5001391;28;20029;-79
2022/06/29 03:01:45;;;;;;;19.42;9.73;;;;;;;;;;4991785;28;20061;-78
2022/06/29 03:04:11;;;;;;;16.17;10.40;;;;;;;;;;4996170;28;20519;-78
2022/06/29 03:06:37;;;;;;;13.57;9.50;;;;;;;;;;4993255;28;20034;-79
2022/06/29 03:09:03;;;;;;;11.77;9.13;;;;;;;;;;4990237;28;20125;-77
2022/06/29 03:11:29;;;;;;;12.35;9.88;;;;;;;;;;4995153;28;20025;-79
2022/06/29 03:13:56;;;;;;;12.80;9.45;;;;;;;;;;5012723;28;20064;-78
2022/06/29 03:16:22;;;;;;;13.23;9.73;;;;;;;;;;5006710;28;20018;-78
2022/06/29 03:18:49;;;;;;;11.20;8.75;;;;;;;;;;4994636;28;20030;-78
2022/06/29 03:21:15;;;;;;;12.45;9.98;;;;;;;;;;5012440;28;20033;-77
2022/06/29 03:23:44;;;;;;;11.77;9.82;;;;;;;;;;5011121;28;20057;-78
2022/06/29 03:26:10;;;;;;;11.65;9.93;;;;;;;;;;5012281;28;20075;-78
2022/06/29 03:28:36;;;;;;;11.00;9.45;;;;;;;;;;5005838;28;20490;-78
2022/06/29 03:31:02;;;;;;;11.00;9.43;;;;;;;;;;5007748;28;20035;-78
2022/06/29 03:33:28;;;;;;;12.45;9.13;;;;;;;;;;4992242;28;20161;-78
2022/06/29 03:35:54;;;;;;;11.05;9.35;;;;;;;;;;4992704;28;20122;-78
2022/06/29 03:38:20;;;;;;;11.85;9.48;;;;;;;;;;4990924;28;20123;-80
2022/06/29 03:40:46;;;;;;;11.05;9.25;;;;;;;;;;4992572;28;20049;-77
2022/06/29 03:43:12;;;;;;;11.23;9.00;;;;;;;;;;4994827;28;20037;-78
2022/06/29 03:45:38;;;;;;;10.27;8.90;;;;;;;;;;4993576;28;20424;-77
2022/06/29 03:48:05;;;;;;;12.68;9.45;;;;;;;;;;4991013;28;20503;-77
2022/06/29 03:50:31;;;;;;;12.27;9.52;;;;;;;;;;4991455;28;20431;-77
2022/06/29 03:52:57;;;;;;;13.55;9.73;;;;;;;;;;4997779;28;20098;-77
2022/06/29 03:55:23;;;;;;;10.45;9.05;;;;;;;;;;5011785;28;20110;-76
2022/06/29 03:57:49;;;;;;;11.40;9.40;;;;;;;;;;5009704;28;20041;-77
2022/06/29 04:00:16;;;;;;;11.60;9.65;;;;;;;;;;5011898;28;20105;-77
2022/06/29 04:02:42;;;;;;;12.82;10.25;;;;;;;;;;5005363;28;20069;-77
2022/06/29 04:05:09;;;;;;;11.80;9.82;;;;;;;;;;4997896;28;20033;-77
2022/06/29 04:07:35;;;;;;;13.40;10.68;;;;;;;;;;5004074;28;20040;-77
2022/06/29 04:10:01;;;;;;;13.57;10.45;;;;;;;;;;4996881;28;20366;-76
2022/06/29 04:12:28;;;;;;;10.43;8.98;;;;;;;;;;4991439;28;20026;-77
2022/06/29 04:14:54;;;;;;;10.82;8.95;;;;;;;;;;5000545;28;20052;-77
2022/06/29 04:17:20;;;;;;;12.98;9.55;;;;;;;;;;5011676;28;20030;-76
2022/06/29 04:19:46;;;;;;;11.50;9.80;;;;;;;;;;5003457;28;20129;-76
2022/06/29 04:22:12;;;;;;;10.85;9.45;;;;;;;;;;4991301;28;20070;-77
2022/06/29 04:24:38;;;;;;;10.75;9.35;;;;;;;;;;4982552;28;20043;-77
2022/06/29 04:27:05;;;;;;;11.43;8.98;;;;;;;;;;4987710;28;20042;-77
2022/06/29 04:29:31;;;;;;;11.98;9.70;;;;;;;;;;4989571;28;20511;-76
2022/06/29 04:31:57;;;;;;;11.77;9.90;;;;;;;;;;4991564;28;20087;-77
2022/06/29 04:34:23;;;;;;;10.77;9.55;;;;;;;;;;4984480;28;20130;-77
2022/06/29 04:36:51;;;;;;;10.95;9.38;;;;;;;;;;4976320;28;20026;-77
2022/06/29 04:39:18;;;;;;;12.35;9.98;;;;;;;;;;4991918;28;20113;-77
2022/06/29 04:41:43;;;;;;;13.55;9.55;;;;;;;;;;4990413;28;20033;-77
2022/06/29 04:44:10;;;;;;;12.70;10.35;;;;;;;;;;4993972;28;20034;-77
2022/06/29 04:46:35;;;;;;;11.05;9.70;;;;;;;;;;4989573;28;20038;-78
2022/06/29 04:49:03;;;;;;;13.05;10.18;;;;;;;;;;4989773;28;20100;-77
2022/06/29 04:51:31;;;;;;;12.23;9.80;;;;;;;;;;4988245;28;20022;-77
2022/06/29 04:53:57;;;;;;;11.25;9.50;;;;;;;;;;4997429;28;20492;-78
2022/06/29 04:56:27;;;;;;;12.65;9.30;;;;;;;;;;5011305;28;20022;-77
2022/06/29 04:58:54;;;;;;;13.10;9.65;;;;;;;;;;5011271;28;20105;-78
2022/06/29 05:01:24;;;;;;;13.85;9.60;;;;;;;;;;4994080;28;20022;-77
2022/06/29 05:03:50;;;;;;;12.68;10.02;;;;;;;;;;5007157;28;20113;-77
2022/06/29 05:06:16;;;;;;;10.48;8.93;;;;;;;;;;5002623;28;20022;-77
2022/06/29 05:08:42;;;;;;;12.80;9.65;;;;;;;;;;5009865;28;20030;-77
2022/06/29 05:11:09;;;;;;;13.57;9.40;;;;;;;;;;4990619;28;20030;-77
2022/06/29 05:13:35;;;;;;;17.58;10.52;;;;;;;;;;4995003;28;20026;-76
2022/06/29 05:16:01;;;;;;;14.95;10.38;;;;;;;;;;4990779;28;20082;-77
2022/06/29 05:18:28;;;;;;;16.77;9.82;;;;;;;;;;4990381;28;20030;-77
2022/06/29 05:20:54;;;;;;;19.10;10.95;;;;;;;;;;4976290;28;20122;-77
2022/06/29 05:23:20;;;;;;;12.80;10.10;;;;;;;;;;4983812;28;20788;-78
2022/06/29 05:25:46;;;;;;;12.20;9.85;;;;;;;;;;4991541;28;20034;-77
2022/06/29 05:28:13;;;;;;;12.48;9.43;;;;;;;;;;4991336;28;20077;-77
2022/06/29 05:30:39;;;;;;;13.13;10.10;;;;;;;;;;4991356;28;20046;-77
2022/06/29 05:33:05;;;;;;;11.25;9.82;;;;;;;;;;5000988;28;20053;-77
2022/06/29 05:35:33;;;;;;;16.38;10.50;;;;;;;;;;4991802;28;20078;-77
2022/06/29 05:38:01;;;;;;;12.63;10.10;;;;;;;;;;4993775;28;20502;-77
2022/06/29 05:40:27;;;;;;;18.10;9.73;;;;;;;;;;4993944;28;20029;-77
2022/06/29 05:42:53;;;;;;;13.68;10.05;;;;;;;;;;4993289;28;20502;-77
2022/06/29 05:45:21;;;;;;;12.63;10.18;;;;;;;;;;5012646;28;20034;-77
2022/06/29 05:47:47;;;;;;;14.30;10.00;;;;;;;;;;4997185;28;20041;-78
2022/06/29 05:50:13;;;;;;;11.70;10.13;;;;;;;;;;4993475;28;20026;-78
2022/06/29 05:52:40;;;;;;;10.77;9.48;;;;;;;;;;4990858;28;20030;-78
2022/06/29 05:55:06;;;;;;;10.43;9.32;;;;;;;;;;5006633;28;20041;-78
2022/06/29 05:57:33;;;;;;;11.82;10.13;;;;;;;;;;4995365;28;20034;-78
2022/06/29 06:00:01;;;;;;;13.35;9.77;;;;;;;;;;4990002;28;20053;-78
2022/06/29 06:02:27;;;;;;;11.10;9.35;;;;;;;;;;4998563;28;20026;-78
2022/06/29 06:04:53;;;;;;;13.73;10.15;;;;;;;;;;5012727;28;20052;-77
2022/06/29 06:07:19;;;;;;;15.68;10.27;;;;;;;;;;5013651;28;20391;-78
2022/06/29 06:09:45;;;;;;;15.50;11.07;;;;;;;;;;5009973;28;20034;-78
2022/06/29 06:12:11;;;;;;;12.85;10.00;;;;;;;;;;5013538;28;20479;-78
2022/06/29 06:14:38;;;;;;;12.90;10.38;;;;;;;;;;5012466;28;20435;-78
2022/06/29 06:17:04;;;;;;;11.65;10.02;;;;;;;;;;5013838;28;20026;-78
2022/06/29 06:19:30;;;;;;;12.55;10.02;;;;;;;;;;4994460;28;20038;-78
2022/06/29 06:21:56;;;;;;;10.55;9.25;;;;;;;;;;5011602;28;20036;-76
2022/06/29 06:24:22;;;;;;;11.45;9.60;;;;;;;;;;5013249;28;20037;-77
2022/06/29 06:26:48;;;;;;;12.50;10.30;;;;;;;;;;5014118;28;20030;-77
2022/06/29 06:29:14;;;;;;;11.43;10.15;;;;;;;;;;5009628;28;20023;-77
2022/06/29 06:31:40;;;;;;;13.35;10.68;;;;;;;;;;5010565;28;20395;-77
2022/06/29 06:34:06;;;;;;;12.13;10.38;;;;;;;;;;5012349;28;20056;-77
2022/06/29 06:36:32;;;;;;;13.90;11.40;;;;;;;;;;5014268;28;20036;-77
2022/06/29 06:38:58;;;;;;;11.60;10.10;;;;;;;;;;5014267;28;20026;-77
2022/06/29 06:41:27;;;;;;;11.77;10.48;;;;;;;;;;5009917;28;20530;-78
2022/06/29 06:43:57;;;;;;;13.38;10.98;;;;;;;;;;5013242;28;20400;-78
2022/06/29 06:46:23;;;;;;;11.77;10.57;;;;;;;;;;5012567;28;20033;-78
2022/06/29 06:48:50;;;;;;;11.60;10.32;;;;;;;;;;5000643;28;20448;-78
2022/06/29 06:51:16;;;;;;;11.50;10.23;;;;;;;;;;5006694;28;20061;-78
2022/06/29 06:53:43;;;;;;;12.70;11.00;;;;;;;;;;5012969;28;20025;-78
2022/06/29 06:56:09;;;;;;;14.43;10.93;;;;;;;;;;5012887;28;20037;-78
2022/06/29 06:58:38;;;;;;;11.65;10.02;;;;;;;;;;5011349;28;20145;-78
2022/06/29 07:01:05;;;;;;;11.90;10.40;;;;;;;;;;5010657;28;20034;-78
2022/06/29 07:03:31;;;;;;;12.52;10.65;;;;;;;;;;5012660;28;20033;-78
2022/06/29 07:05:59;;;;;;;12.70;11.50;;;;;;;;;;5006626;28;20492;-78
2022/06/29 07:08:25;;;;;;;12.30;9.90;;;;;;;;;;4993080;28;20026;-78
2022/06/29 07:10:51;;;;;;;11.32;10.20;;;;;;;;;;5002281;28;20080;-78
2022/06/29 07:13:17;;;;;;;12.25;11.02;;;;;;;;;;5012505;28;20018;-78
2022/06/29 07:15:43;;;;;;;12.90;11.13;;;;;;;;;;5009715;28;20550;-78
2022/06/29 07:18:09;;;;;;;12.98;10.93;;;;;;;;;;4992533;28;20049;-78
2022/06/29 07:20:35;;;;;;;13.35;10.40;;;;;;;;;;4998651;28;20030;-78
2022/06/29 07:23:01;;;;;;;13.00;10.68;;;;;;;;;;5013390;28;20395;-77
2022/06/29 07:25:27;;;;;;;11.05;9.85;;;;;;;;;;5010585;28;20030;-76
2022/06/29 07:27:53;;;;;;;13.18;10.38;;;;;;;;;;5012364;28;20109;-77
2022/06/29 07:30:19;;;;;;;11.70;10.43;;;;;;;;;;5010929;28;20038;-76
2022/06/29 07:32:45;;;;;;;12.32;10.75;;;;;;;;;;5011091;28;20101;-77
2022/06/29 07:35:11;;;;;;;11.68;10.38;;;;;;;;;;5011565;28;20050;-76
2022/06/29 07:37:37;;;;;;;12.27;9.98;;;;;;;;;;5012591;28;20451;-78
2022/06/29 07:40:03;;;;;;;12.32;10.32;;;;;;;;;;5009696;28;20029;-78
2022/06/29 07:42:32;;;;;;;15.85;11.48;;;;;;;;;;5011028;28;20026;-78
2022/06/29 07:44:58;;;;;;;13.45;10.25;;;;;;;;;;5013444;28;20018;-78
2022/06/29 07:47:24;;;;;;;13.38;11.18;;;;;;;;;;5009909;28;20384;-78
2022/06/29 07:49:50;;;;;;;12.75;10.27;;;;;;;;;;4992977;28;20504;-79
2022/06/29 07:52:17;;;;;;;14.88;10.85;;;;;;;;;;5012554;28;20442;-78
2022/06/29 07:54:43;;;;;;;14.75;11.23;;;;;;;;;;5012066;28;20025;-78
2022/06/29 07:57:09;;;;;;;13.20;11.20;;;;;;;;;;5000080;28;20392;-78
2022/06/29 07:59:35;;;;;;;11.60;10.35;;;;;;;;;;4991123;28;20035;-78
2022/06/29 08:02:01;;;;;;;11.85;10.57;;;;;;;;;;5010134;28;20041;-78
2022/06/29 08:04:27;;;;;;;15.00;10.60;;;;;;;;;;5011844;28;20040;-78
2022/06/29 08:06:53;;;;;;;14.43;11.52;;;;;;;;;;5009695;28;20036;-78
2022/06/29 08:09:19;;;;;;;15.15;10.65;;;;;;;;;;5005151;28;20018;-79
2022/06/29 08:11:45;;;;;;;13.00;11.10;;;;;;;;;;5007565;28;20018;-78
2022/06/29 08:14:11;;;;;;;12.13;10.07;;;;;;;;;;5011696;28;20018;-79
2022/06/29 08:16:37;;;;;;;12.55;10.95;;;;;;;;;;5011710;28;20531;-78
2022/06/29 08:19:03;;;;;;;12.85;11.30;;;;;;;;;;5010518;28;20037;-78
2022/06/29 08:21:29;;;;;;;11.25;10.05;;;;;;;;;;5008262;28;20030;-78
2022/06/29 08:23:55;;;;;;;11.23;10.10;;;;;;;;;;5011736;28;20081;-78
2022/06/29 08:26:21;;;;;;;12.63;11.32;;;;;;;;;;5011814;28;20053;-78
2022/06/29 08:28:47;;;;;;;11.60;10.40;;;;;;;;;;5011648;28;20105;-78
2022/06/29 08:31:13;;;;;;;12.30;10.13;;;;;;;;;;4995785;28;20027;-78
2022/06/29 08:33:39;;;;;;;13.70;10.57;;;;;;;;;;4991763;28;20024;-78
2022/06/29 08:36:05;;;;;;;13.35;10.55;;;;;;;;;;4992265;28;20026;-78
2022/06/29 08:38:31;;;;;;;12.10;10.85;;;;;;;;;;4991237;28;20032;-79
2022/06/29 08:40:58;;;;;;;15.45;10.57;;;;;;;;;;4998674;28;20030;-79
2022/06/29 08:43:24;;;;;;;11.05;9.40;;;;;;;;;;5011933;28;20029;-79
2022/06/29 08:45:52;;;;;;;13.77;10.50;;;;;;;;;;4991481;28;20111;-79
2022/06/29 08:48:18;;;;;;;11.63;9.85;;;;;;;;;;4991872;28;20026;-78
2022/06/29 08:50:50;;;;;;;11.77;9.65;;;;;;;;;;4995896;28;20034;-78
2022/06/29 08:53:16;;;;;;;11.10;9.90;;;;;;;;;;5011764;28;20389;-78
2022/06/29 08:55:44;;;;;;;10.27;9.18;;;;;;;;;;5011558;28;20029;-79
2022/06/29 08:58:14;;;;;;;10.40;9.13;;;;;;;;;;5011834;28;20037;-78
2022/06/29 09:00:40;;;;;;;11.95;10.40;;;;;;;;;;5008596;28;20041;-79
2022/06/29 09:03:06;;;;;;;10.57;9.45;;;;;;;;;;5011659;28;20487;-78
2022/06/29 09:05:33;;;;;;;11.38;9.00;;;;;;;;;;5011613;28;20033;-78
2022/06/29 09:07:59;;;;;;;10.85;8.98;;;;;;;;;;5011533;28;20026;-79
2022/06/29 09:10:25;;;;;;;11.70;9.48;;;;;;;;;;5004478;28;20384;-79
2022/06/29 09:12:52;;;;;;;10.63;9.07;;;;;;;;;;5013451;28;20030;-78
2022/06/29 09:15:32;;;;;;;12.70;10.00;;;;;;;;;;5015519;28;20025;-79
2022/06/29 09:17:58;;;;;;;10.90;9.48;;;;;;;;;;5002399;28;20034;-78
2022/06/29 09:20:24;;;;;;;9.82;8.82;;;;;;;;;;5004366;28;20026;-78
2022/06/29 09:22:54;;;;;;;10.57;9.40;;;;;;;;;;5015175;28;20540;-79
2022/06/29 09:25:23;;;;;;;11.20;10.00;;;;;;;;;;5014971;28;20088;-78
2022/06/29 09:27:49;;;;;;;12.05;9.48;;;;;;;;;;5008207;28;20054;-78
2022/06/29 09:30:27;;;;;;;11.82;9.38;;;;;;;;;;5003683;28;20370;-78
2022/06/29 09:33:00;;;;;;;10.45;9.35;;;;;;;;;;5006814;28;20026;-78
2022/06/29 09:35:26;;;;;;;10.90;9.80;;;;;;;;;;5012158;28;20042;-78
2022/06/29 09:37:52;;;;;;;11.77;10.38;;;;;;;;;;5014948;28;20080;-78
2022/06/29 09:40:18;;;;;;;10.57;9.48;;;;;;;;;;5003546;28;20090;-78
2022/06/29 09:42:44;;;;;;;12.70;9.35;;;;;;;;;;4995160;28;20396;-78
2022/06/29 09:45:10;;;;;;;10.30;9.23;;;;;;;;;;4993690;28;20031;-79
2022/06/29 09:47:37;;;;;;;10.52;9.18;;;;;;;;;;4994277;28;20037;-78
2022/06/29 09:50:06;;;;;;;10.60;8.80;;;;;;;;;;4993105;28;20022;-79
2022/06/29 09:52:33;;;;;;;9.90;8.85;;;;;;;;;;4994963;28;20377;-79
2022/06/29 09:55:00;;;;;;;10.13;8.82;;;;;;;;;;5003267;28;20065;-78
2022/06/29 09:57:28;;;;;;;10.13;8.82;;;;;;;;;;5002157;28;20048;-78
2022/06/29 10:02:49;;;;;;;9.63;8.63;;;;;;;;;;4995105;28;20456;-78
2022/06/29 10:05:17;;;;;;;9.98;8.98;;;;;;;;;;4997088;28;20085;-78
2022/06/29 10:07:44;;;;;;;11.23;9.00;;;;;;;;;;4993934;28;20176;-78
2022/06/29 10:10:12;;;;;;;9.00;8.13;;;;;;;;;;4990636;28;20327;-78
2022/06/29 10:16:02;;;;;;;10.90;8.57;;;;;;;;;;4991286;28;20198;-79
2022/06/29 10:18:31;;;;;;;11.18;8.77;;;;;;;;;;4996696;28;20029;-78
2022/06/29 10:20:58;;;;;;;11.52;9.10;;;;;;;;;;5012877;28;20104;-79
2022/06/29 10:23:42;;;;;;;9.32;8.23;;;;;;;;;;5001708;28;20030;-78
2022/06/29 10:26:34;;;;;;;9.23;8.30;;;;;;;;;;5005688;28;20034;-78
2022/06/29 10:29:06;;;;;;;10.60;8.10;;;;;;;;;;4993883;28;20125;-78
2022/06/29 10:31:51;;;;;;;9.32;8.32;;;;;;;;;;4993960;28;20019;-78
2022/06/29 10:34:32;;;;;;;10.27;8.55;;;;;;;;;;4992539;28;20061;-79
2022/06/29 10:37:11;;;;;;;8.95;7.75;;;;;;;;;;5014004;28;20105;-79
2022/06/29 10:39:49;;;;;;;9.65;7.88;;;;;;;;;;5015088;28;20042;-78
2022/06/29 10:45:19;;;;;;;10.18;8.38;;;;;;;;;;4996899;28;20508;-79
2022/06/29 10:47:58;;;;;;;9.93;7.65;;;;;;;;;;4995955;28;20022;-79
2022/06/29 10:50:25;;;;;;;8.75;7.35;;;;;;;;;;4995644;28;20547;-78
2022/06/29 10:52:55;;;;;;;9.48;7.40;;;;;;;;;;5000118;28;20037;-79
2022/06/29 10:55:22;;;;;;;8.85;7.13;;;;;;;;;;4995502;28;20026;-80
2022/06/29 10:57:48;;;;;;;11.18;7.72;;;;;;;;;;4996510;28;20080;-78
2022/06/29 11:00:18;;;;;;;10.10;7.60;;;;;;;;;;4996491;28;20030;-79
2022/06/29 11:02:45;;;;;;;9.48;8.02;;;;;;;;;;5013813;28;20030;-79
2022/06/29 11:05:11;;;;;;;8.60;7.70;;;;;;;;;;5016936;28;20093;-79
2022/06/29 11:13:11;;;;;;;10.23;8.15;;;;;;;;;;5007613;28;20060;-78
2022/06/29 11:15:45;;;;;;;8.48;7.60;;;;;;;;;;5017125;28;20551;-79
2022/06/29 11:18:11;;;;;;;9.55;8.05;;;;;;;;;;5017795;28;20547;-79
2022/06/29 11:20:38;;;;;;;11.05;8.45;;;;;;;;;;5017085;28;20093;-79
2022/06/29 11:23:04;;;;;;;8.93;8.02;;;;;;;;;;5004160;28;20034;-79
2022/06/29 11:25:37;;;;;;;10.20;8.55;;;;;;;;;;4998634;28;20085;-79
2022/06/29 11:28:04;;;;;;;8.90;7.95;;;;;;;;;;5004436;28;20408;-78
2022/06/29 11:30:30;;;;;;;8.98;7.85;;;;;;;;;;5015508;28;20026;-78
2022/06/29 11:32:56;;;;;;;8.90;8.00;;;;;;;;;;5012835;28;20025;-78
2022/06/29 11:35:23;;;;;;;10.10;8.45;;;;;;;;;;5015643;28;20396;-78
2022/06/29 11:37:51;;;;;;;10.70;8.20;;;;;;;;;;5016362;28;20057;-78
2022/06/29 11:40:21;;;;;;;10.35;8.10;;;;;;;;;;5018422;28;20077;-79
2022/06/29 11:43:05;;;;;;;8.95;8.05;;;;;;;;;;5015178;28;20034;-79
2022/06/29 11:45:37;;;;;;;9.88;8.65;;;;;;;;;;5019437;28;20037;-79
2022/06/29 11:48:10;;;;;;;9.48;8.43;;;;;;;;;;5016481;28;20026;-79
2022/06/29 11:50:42;;;;;;;8.07;7.07;;;;;;;;;;5017195;28;20026;-79
2022/06/29 11:53:08;;;;;;;8.95;7.70;;;;;;;;;;5007166;28;20023;-79
2022/06/29 11:55:45;;;;;;;9.75;7.93;;;;;;;;;;4999914;28;20503;-79
2022/06/29 11:58:13;;;;;;;8.63;7.40;;;;;;;;;;5009633;28;20492;-79
2022/06/29 12:00:40;;;;;;;9.23;7.28;;;;;;;;;;5018437;28;20030;-79
2022/06/29 12:03:07;;;;;;;8.40;7.43;;;;;;;;;;5015979;28;20045;-79
2022/06/29 12:05:33;;;;;;;8.48;7.00;;;;;;;;;;5015559;28;20060;-80
2022/06/29 12:07:59;;;;;;;9.13;6.25;;;;;;;;;;5018817;28;20507;-79
2022/06/29 12:10:25;;;;;;;11.85;6.65;;;;;;;;;;5020856;28;20417;-80
2022/06/29 12:12:51;;;;;;;7.63;5.78;;;;;;;;;;5018010;28;20034;-79
2022/06/29 12:15:17;;;;;;;7.32;5.70;;;;;;;;;;5020261;28;20034;-80
2022/06/29 12:17:44;;;;;;;11.55;7.07;;;;;;;;;;5020636;28;20022;-79
2022/06/29 12:20:11;;;;;;;7.85;6.65;;;;;;;;;;5018950;28;20053;-79
2022/06/29 12:22:37;;;;;;;7.25;6.50;;;;;;;;;;5008970;28;20022;-79
2022/06/29 12:25:03;;;;;;;6.57;5.85;;;;;;;;;;5003834;28;20030;-79
2022/06/29 12:27:29;;;;;;;8.63;6.03;;;;;;;;;;5003158;28;20034;-79
2022/06/29 12:29:55;;;;;;;7.32;5.82;;;;;;;;;;5003411;28;20026;-79
2022/06/29 12:32:21;;;;;;;9.75;6.05;;;;;;;;;;5007227;28;20030;-79
2022/06/29 12:34:47;;;;;;;6.90;6.03;;;;;;;;;;5022336;28;20049;-79
2022/06/29 12:37:13;;;;;;;7.53;5.53;;;;;;;;;;5020868;28;20369;-79
2022/06/29 12:39:39;;;;;;;8.10;6.10;;;;;;;;;;5022430;28;20046;-79
2022/06/29 12:42:05;;;;;;;6.50;5.80;;;;;;;;;;5020409;28;20032;-79
2022/06/29 12:44:31;;;;;;;6.95;5.68;;;;;;;;;;5026070;28;20085;-80
2022/06/29 12:46:57;;;;;;;7.32;6.05;;;;;;;;;;5018138;28;20527;-79
2022/06/29 12:49:23;;;;;;;7.75;5.65;;;;;;;;;;5024084;28;20026;-80
2022/06/29 12:51:50;;;;;;;8.13;5.40;;;;;;;;;;5025544;28;20014;-78
2022/06/29 12:54:17;;;;;;;7.88;5.90;;;;;;;;;;5017382;28;20040;-79
2022/06/29 12:56:43;;;;;;;9.18;6.60;;;;;;;;;;5021514;28;20492;-79
2022/06/29 12:59:09;;;;;;;7.03;6.00;;;;;;;;;;5024135;28;20030;-81
2022/06/29 13:01:35;;;;;;;7.68;5.88;;;;;;;;;;5024219;28;20018;-79
2022/06/29 13:04:01;;;;;;;7.18;5.53;;;;;;;;;;5022836;28;20034;-79
2022/06/29 13:06:28;;;;;;;7.70;5.90;;;;;;;;;;5020413;28;20124;-79
2022/06/29 13:08:54;;;;;;;8.52;5.82;;;;;;;;;;5021112;28;20037;-79
2022/06/29 13:11:20;;;;;;;7.13;6.00;;;;;;;;;;5023760;28;20018;-79
2022/06/29 13:13:46;;;;;;;8.98;6.07;;;;;;;;;;5022052;28;20034;-79
2022/06/29 13:16:12;;;;;;;8.27;6.35;;;;;;;;;;5023180;28;20072;-79
2022/06/29 13:18:38;;;;;;;8.20;6.30;;;;;;;;;;5016129;28;20030;-79
2022/06/29 13:21:04;;;;;;;8.45;5.57;;;;;;;;;;4998156;28;20396;-77
2022/06/29 13:23:30;;;;;;;7.47;6.05;;;;;;;;;;5004844;28;20034;-79
2022/06/29 13:25:56;;;;;;;7.60;6.50;;;;;;;;;;5006883;28;20022;-79
2022/06/29 13:28:23;;;;;;;8.77;6.05;;;;;;;;;;5012338;28;20114;-78
2022/06/29 13:30:49;;;;;;;9.02;6.47;;;;;;;;;;5021005;28;20053;-79
2022/06/29 13:33:15;;;;;;;7.03;5.82;;;;;;;;;;5017118;28;20137;-79
2022/06/29 13:35:41;;;;;;;7.57;6.15;;;;;;;;;;5016914;28;20397;-78
2022/06/29 13:38:07;;;;;;;6.85;6.10;;;;;;;;;;5014155;28;20029;-79
2022/06/29 13:40:33;;;;;;;7.47;6.05;;;;;;;;;;5017706;28;20030;-78
2022/06/29 13:43:00;;;;;;;7.53;6.05;;;;;;;;;;5005605;28;20031;-78
2022/06/29 13:45:26;;;;;;;6.68;5.82;;;;;;;;;;4997907;28;20027;-78
2022/06/29 13:47:52;;;;;;;7.63;6.28;;;;;;;;;;5007498;28;20036;-78
2022/06/29 13:50:18;;;;;;;11.75;6.38;;;;;;;;;;5017966;28;20105;-76
2022/06/29 13:52:44;;;;;;;6.65;5.68;;;;;;;;;;5016214;28;20100;-78
2022/06/29 13:55:10;;;;;;;9.98;6.10;;;;;;;;;;5016966;28;20075;-76
2022/06/29 13:57:36;;;;;;;11.25;5.50;;;;;;;;;;5010290;28;20104;-78
2022/06/29 14:00:03;;;;;;;7.65;5.53;;;;;;;;;;5016185;28;20030;-78
2022/06/29 14:02:30;;;;;;;9.48;5.68;;;;;;;;;;5016181;28;20080;-77
2022/06/29 14:04:55;;;;;;;8.13;6.03;;;;;;;;;;5012993;28;20481;-77
2022/06/29 14:07:22;;;;;;;6.97;5.63;;;;;;;;;;5001631;28;20065;-78
2022/06/29 14:09:48;;;;;;;9.48;5.97;;;;;;;;;;5004101;28;20053;-78
2022/06/29 14:12:15;;;;;;;6.40;5.40;;;;;;;;;;4997412;28;20109;-78
2022/06/29 14:14:41;;;;;;;7.53;5.35;;;;;;;;;;4997331;28;20287;-78
2022/06/29 14:17:07;;;;;;;8.23;6.05;;;;;;;;;;4996516;28;20104;-78
2022/06/29 14:19:35;;;;;;;7.65;5.60;;;;;;;;;;5016536;28;20030;-78
2022/06/29 14:22:02;;;;;;;6.72;5.13;;;;;;;;;;5017866;28;20588;-78
2022/06/29 14:24:29;;;;;;;8.68;5.22;;;;;;;;;;5017619;28;20028;-78
2022/06/29 14:26:56;;;;;;;9.52;5.50;;;;;;;;;;5015923;28;20030;-78
2022/06/29 14:29:22;;;;;;;8.10;5.25;;;;;;;;;;5015615;28;20032;-78
2022/06/29 14:31:48;;;;;;;7.47;5.15;;;;;;;;;;5016242;28;20029;-78
2022/06/29 14:34:14;;;;;;;6.10;5.30;;;;;;;;;;5015271;28;20133;-77
2022/06/29 14:36:40;;;;;;;7.47;5.00;;;;;;;;;;5015751;28;20441;-78
2022/06/29 14:39:06;;;;;;;7.32;5.15;;;;;;;;;;5010665;28;20030;-78
2022/06/29 14:41:32;;;;;;;8.43;5.45;;;;;;;;;;5017741;28;20033;-79
2022/06/29 14:43:58;;;;;;;6.60;5.53;;;;;;;;;;5018265;28;20041;-78
2022/06/29 14:46:24;;;;;;;7.60;5.07;;;;;;;;;;5016726;28;20030;-78